sensor_id;sensor_type;location;lat;lon;timestamp;pressure;altitude;pressure_sealevel;temperature;humidity
43838;BME280;65998;46.256;7.534;2023-04-23T00:00:05;86523.66;;;16.04;45.44
43838;BME280;65998;46.256;7.534;2023-04-23T00:02:32;86521.63;;;16.03;45.28
43838;BME280;65998;46.256;7.534;2023-04-23T00:05:03;86519.47;;;16.05;45.29
43838;BME280;65998;46.256;7.534;2023-04-23T00:07:31;86509.88;;;16.02;45.22
43838;BME280;65998;46.256;7.534;2023-04-23T00:09:59;86506.44;;;16.02;45.14
43838;BME280;65998;46.256;7.534;2023-04-23T00:12:26;86514.00;;;16.03;45.24
43838;BME280;65998;46.256;7.534;2023-04-23T00:14:53;86520.34;;;16.00;45.45
43838;BME280;65998;46.256;7.534;2023-04-23T00:17:18;86510.63;;;16.01;45.33
43838;BME280;65998;46.256;7.534;2023-04-23T00:19:45;86505.06;;;16.01;45.50
43838;BME280;65998;46.256;7.534;2023-04-23T00:22:10;86509.28;;;16.00;45.17
43838;BME280;65998;46.256;7.534;2023-04-23T00:24:36;86503.06;;;15.99;45.18
43838;BME280;65998;46.256;7.534;2023-04-23T00:27:02;86494.75;;;15.99;45.33
43838;BME280;65998;46.256;7.534;2023-04-23T00:29:28;86487.84;;;15.98;45.29
43838;BME280;65998;46.256;7.534;2023-04-23T00:31:54;86502.38;;;15.99;45.36
43838;BME280;65998;46.256;7.534;2023-04-23T00:34:20;86490.63;;;15.98;45.17
43838;BME280;65998;46.256;7.534;2023-04-23T00:36:45;86496.91;;;15.96;45.18
43838;BME280;65998;46.256;7.534;2023-04-23T00:39:11;86490.03;;;15.95;45.29
43838;BME280;65998;46.256;7.534;2023-04-23T00:41:38;86496.84;;;15.99;45.36
43838;BME280;65998;46.256;7.534;2023-04-23T00:44:05;86492.13;;;15.95;45.33
43838;BME280;65998;46.256;7.534;2023-04-23T00:46:30;86481.72;;;15.95;45.33
43838;BME280;65998;46.256;7.534;2023-04-23T00:48:57;86478.94;;;15.95;45.35
43838;BME280;65998;46.256;7.534;2023-04-23T00:51:23;86476.19;;;15.95;45.26
43838;BME280;65998;46.256;7.534;2023-04-23T00:53:49;86479.69;;;15.94;45.33
43838;BME280;65998;46.256;7.534;2023-04-23T00:56:16;86480.28;;;15.96;45.34
43838;BME280;65998;46.256;7.534;2023-04-23T00:58:43;86487.25;;;15.95;45.14
43838;BME280;65998;46.256;7.534;2023-04-23T01:01:10;86485.16;;;15.96;45.42
43838;BME280;65998;46.256;7.534;2023-04-23T01:03:37;86480.38;;;15.94;45.33
43838;BME280;65998;46.256;7.534;2023-04-23T01:06:04;86478.28;;;15.95;45.43
43838;BME280;65998;46.256;7.534;2023-04-23T01:08:31;86474.16;;;15.94;45.15
43838;BME280;65998;46.256;7.534;2023-04-23T01:10:58;86477.59;;;15.94;45.26
43838;BME280;65998;46.256;7.534;2023-04-23T01:13:25;86474.91;;;15.92;45.20
43838;BME280;65998;46.256;7.534;2023-04-23T01:15:51;86469.34;;;15.92;45.28
43838;BME280;65998;46.256;7.534;2023-04-23T01:18:17;86471.53;;;15.90;45.25
43838;BME280;65998;46.256;7.534;2023-04-23T01:20:42;86481.94;;;15.89;45.20
43838;BME280;65998;46.256;7.534;2023-04-23T01:23:09;86470.84;;;15.89;45.31
43838;BME280;65998;46.256;7.534;2023-04-23T01:25:34;86474.31;;;15.90;45.32
43838;BME280;65998;46.256;7.534;2023-04-23T01:28:01;86484.03;;;15.89;45.29
43838;BME280;65998;46.256;7.534;2023-04-23T01:30:27;86479.84;;;15.90;45.27
43838;BME280;65998;46.256;7.534;2023-04-23T01:32:54;86475.56;;;15.93;45.19
43838;BME280;65998;46.256;7.534;2023-04-23T01:35:21;86470.03;;;15.93;45.23
43838;BME280;65998;46.256;7.534;2023-04-23T01:37:48;86461.72;;;15.93;45.29
43838;BME280;65998;46.256;7.534;2023-04-23T01:40:15;86467.41;;;15.89;45.32
43838;BME280;65998;46.256;7.534;2023-04-23T01:42:41;86467.50;;;15.87;45.30
43838;BME280;65998;46.256;7.534;2023-04-23T01:45:07;86472.97;;;15.89;45.45
43838;BME280;65998;46.256;7.534;2023-04-23T01:47:34;86465.31;;;15.89;45.27
43838;BME280;65998;46.256;7.534;2023-04-23T01:50:00;86467.50;;;15.87;45.30
43838;BME280;65998;46.256;7.534;2023-04-23T01:52:26;86466.16;;;15.86;45.35
43838;BME280;65998;46.256;7.534;2023-04-23T01:54:52;86458.59;;;15.84;45.26
43838;BME280;65998;46.256;7.534;2023-04-23T01:57:18;86460.59;;;15.86;45.35
43838;BME280;65998;46.256;7.534;2023-04-23T01:59:43;86469.59;;;15.86;45.30
43838;BME280;65998;46.256;7.534;2023-04-23T02:02:09;86470.34;;;15.85;45.20
43838;BME280;65998;46.256;7.534;2023-04-23T02:04:36;86465.41;;;15.87;45.29
43838;BME280;65998;46.256;7.534;2023-04-23T02:07:03;86464.13;;;15.84;45.33
43838;BME280;65998;46.256;7.534;2023-04-23T02:09:29;86458.59;;;15.84;45.32
43838;BME280;65998;46.256;7.534;2023-04-23T02:11:55;86453.03;;;15.84;45.21
43838;BME280;65998;46.256;7.534;2023-04-23T02:14:20;86454.47;;;15.83;45.28
43838;BME280;65998;46.256;7.534;2023-04-23T02:16:46;86452.44;;;15.82;45.22
43838;BME280;65998;46.256;7.534;2023-04-23T02:19:12;86464.88;;;15.83;45.28
43838;BME280;65998;46.256;7.534;2023-04-23T02:21:38;86464.88;;;15.83;45.27
43838;BME280;65998;46.256;7.534;2023-04-23T02:24:04;86469.06;;;15.82;45.20
43838;BME280;65998;46.256;7.534;2023-04-23T02:26:30;86475.34;;;15.80;45.38
43838;BME280;65998;46.256;7.534;2023-04-23T02:28:55;86465.03;;;15.79;45.28
43838;BME280;65998;46.256;7.534;2023-04-23T02:31:22;86468.38;;;15.81;45.19
43838;BME280;65998;46.256;7.534;2023-04-23T02:33:47;86460.81;;;15.80;45.28
43838;BME280;65998;46.256;7.534;2023-04-23T02:36:13;86455.28;;;15.80;45.37
43838;BME280;65998;46.256;7.534;2023-04-23T02:38:39;86451.84;;;15.79;45.31
43838;BME280;65998;46.256;7.534;2023-04-23T02:41:05;86459.47;;;15.79;45.37
43838;BME280;65998;46.256;7.534;2023-04-23T02:43:31;86456.03;;;15.78;45.30
43838;BME280;65998;46.256;7.534;2023-04-23T02:45:57;86460.91;;;15.78;45.38
43838;BME280;65998;46.256;7.534;2023-04-23T02:48:22;86460.31;;;15.75;45.26
43838;BME280;65998;46.256;7.534;2023-04-23T02:50:48;86465.84;;;15.75;45.40
43838;BME280;65998;46.256;7.534;2023-04-23T02:53:14;86472.72;;;15.76;45.14
43838;BME280;65998;46.256;7.534;2023-04-23T02:55:40;86470.03;;;15.74;45.31
43838;BME280;65998;46.256;7.534;2023-04-23T02:58:05;86479.03;;;15.75;45.32
43838;BME280;65998;46.256;7.534;2023-04-23T03:00:31;86474.75;;;15.78;45.11
43838;BME280;65998;46.256;7.534;2023-04-23T03:02:57;86471.31;;;15.77;45.29
43838;BME280;65998;46.256;7.534;2023-04-23T03:05:23;86465.78;;;15.77;45.16
43838;BME280;65998;46.256;7.534;2023-04-23T03:07:49;86481.72;;;15.77;45.31
43838;BME280;65998;46.256;7.534;2023-04-23T03:10:15;86487.25;;;15.77;45.19
43838;BME280;65998;46.256;7.534;2023-04-23T03:12:40;86490.78;;;15.75;45.30
43838;BME280;65998;46.256;7.534;2023-04-23T03:15:06;86485.97;;;15.74;45.26
43838;BME280;65998;46.256;7.534;2023-04-23T03:17:32;86483.22;;;15.74;45.39
43838;BME280;65998;46.256;7.534;2023-04-23T03:19:58;86488.09;;;15.73;45.45
43838;BME280;65998;46.256;7.534;2023-04-23T03:22:24;86488.81;;;15.72;45.42
43838;BME280;65998;46.256;7.534;2023-04-23T03:24:50;86470.19;;;15.70;45.38
43838;BME280;65998;46.256;7.534;2023-04-23T03:27:15;86470.84;;;15.71;45.47
43838;BME280;65998;46.256;7.534;2023-04-23T03:29:41;86471.59;;;15.69;45.20
43838;BME280;65998;46.256;7.534;2023-04-23T03:32:07;86467.50;;;15.68;45.43
43838;BME280;65998;46.256;7.534;2023-04-23T03:34:33;86471.59;;;15.69;45.44
43838;BME280;65998;46.256;7.534;2023-04-23T03:36:58;86470.25;;;15.68;45.41
43838;BME280;65998;46.256;7.534;2023-04-23T03:39:24;86478.56;;;15.68;45.39
43838;BME280;65998;46.256;7.534;2023-04-23T03:41:50;86466.16;;;15.67;45.28
43838;BME280;65998;46.256;7.534;2023-04-23T03:44:16;86464.78;;;15.66;45.25
43838;BME280;65998;46.256;7.534;2023-04-23T03:46:41;86470.34;;;15.66;45.28
43838;BME280;65998;46.256;7.534;2023-04-23T03:49:07;86472.44;;;15.66;45.32
43838;BME280;65998;46.256;7.534;2023-04-23T03:51:33;86485.59;;;15.65;45.46
43838;BME280;65998;46.256;7.534;2023-04-23T03:53:59;86465.53;;;15.64;45.31
43838;BME280;65998;46.256;7.534;2023-04-23T03:56:25;86466.28;;;15.63;45.47
43838;BME280;65998;46.256;7.534;2023-04-23T03:58:51;86478.03;;;15.63;45.31
43838;BME280;65998;46.256;7.534;2023-04-23T04:01:17;86477.38;;;15.63;45.38
43838;BME280;65998;46.256;7.534;2023-04-23T04:03:43;86480.13;;;15.63;45.27
43838;BME280;65998;46.256;7.534;2023-04-23T04:06:08;86480.81;;;15.63;45.42
43838;BME280;65998;46.256;7.534;2023-04-23T04:08:34;86482.22;;;15.62;45.50
43838;BME280;65998;46.256;7.534;2023-04-23T04:11:00;86476.03;;;15.62;45.46
43838;BME280;65998;46.256;7.534;2023-04-23T04:13:26;86480.88;;;15.61;45.54
43838;BME280;65998;46.256;7.534;2023-04-23T04:15:52;86488.53;;;15.61;45.49
43838;BME280;65998;46.256;7.534;2023-04-23T04:18:18;86489.13;;;15.63;45.39
43838;BME280;65998;46.256;7.534;2023-04-23T04:20:44;86486.47;;;15.59;45.57
43838;BME280;65998;46.256;7.534;2023-04-23T04:23:10;86491.34;;;15.59;45.38
43838;BME280;65998;46.256;7.534;2023-04-23T04:25:35;86490.66;;;15.58;45.44
43838;BME280;65998;46.256;7.534;2023-04-23T04:28:01;86487.25;;;15.56;45.49
43838;BME280;65998;46.256;7.534;2023-04-23T04:30:27;86480.31;;;15.57;45.42
43838;BME280;65998;46.256;7.534;2023-04-23T04:32:53;86477.53;;;15.57;45.46
43838;BME280;65998;46.256;7.534;2023-04-23T04:35:19;86486.59;;;15.55;45.54
43838;BME280;65998;46.256;7.534;2023-04-23T04:37:45;86486.00;;;15.53;45.49
43838;BME280;65998;46.256;7.534;2023-04-23T04:40:11;86481.00;;;15.57;45.46
43838;BME280;65998;46.256;7.534;2023-04-23T04:42:37;86474.84;;;15.55;45.51
43838;BME280;65998;46.256;7.534;2023-04-23T04:45:03;86473.41;;;15.56;45.46
43838;BME280;65998;46.256;7.534;2023-04-23T04:47:29;86465.19;;;15.54;45.34
43838;BME280;65998;46.256;7.534;2023-04-23T04:49:54;86472.81;;;15.53;45.51
43838;BME280;65998;46.256;7.534;2023-04-23T04:52:20;86472.88;;;15.51;45.58
43838;BME280;65998;46.256;7.534;2023-04-23T04:54:46;86473.56;;;15.52;45.49
43838;BME280;65998;46.256;7.534;2023-04-23T04:57:12;86477.75;;;15.51;45.55
43838;BME280;65998;46.256;7.534;2023-04-23T04:59:37;86471.53;;;15.50;45.68
43838;BME280;65998;46.256;7.534;2023-04-23T05:02:03;86470.78;;;15.52;45.54
43838;BME280;65998;46.256;7.534;2023-04-23T05:04:29;86469.44;;;15.51;45.56
43838;BME280;65998;46.256;7.534;2023-04-23T05:06:55;86470.19;;;15.49;45.53
43838;BME280;65998;46.256;7.534;2023-04-23T05:09:21;86470.19;;;15.49;45.51
43838;BME280;65998;46.256;7.534;2023-04-23T05:11:47;86474.31;;;15.50;45.43
43838;BME280;65998;46.256;7.534;2023-04-23T05:14:13;86474.38;;;15.48;45.59
43838;BME280;65998;46.256;7.534;2023-04-23T05:16:39;86475.13;;;15.47;45.56
43838;BME280;65998;46.256;7.534;2023-04-23T05:19:04;86473.09;;;15.45;45.51
43838;BME280;65998;46.256;7.534;2023-04-23T05:21:30;86473.09;;;15.45;45.56
43838;BME280;65998;46.256;7.534;2023-04-23T05:23:56;86466.16;;;15.46;45.55
43838;BME280;65998;46.256;7.534;2023-04-23T05:26:22;86468.25;;;15.46;45.60
43838;BME280;65998;46.256;7.534;2023-04-23T05:28:47;86469.00;;;15.44;45.58
43838;BME280;65998;46.256;7.534;2023-04-23T05:31:13;86465.56;;;15.44;45.67
43838;BME280;65998;46.256;7.534;2023-04-23T05:33:39;86456.56;;;15.43;45.58
43838;BME280;65998;46.256;7.534;2023-04-23T05:36:05;86469.06;;;15.42;45.59
43838;BME280;65998;46.256;7.534;2023-04-23T05:38:31;86475.28;;;15.43;45.66
43838;BME280;65998;46.256;7.534;2023-04-23T05:40:57;86475.94;;;15.43;45.67
43838;BME280;65998;46.256;7.534;2023-04-23T05:43:23;86475.28;;;15.43;45.72
43838;BME280;65998;46.256;7.534;2023-04-23T05:45:48;86476.69;;;15.42;45.54
43838;BME280;65998;46.256;7.534;2023-04-23T05:48:14;86481.56;;;15.41;45.71
43838;BME280;65998;46.256;7.534;2023-04-23T05:50:40;86478.03;;;15.43;45.72
43838;BME280;65998;46.256;7.534;2023-04-23T05:53:06;86475.34;;;15.41;45.60
43838;BME280;65998;46.256;7.534;2023-04-23T05:55:32;86469.13;;;15.40;45.64
43838;BME280;65998;46.256;7.534;2023-04-23T05:57:57;86474.69;;;15.40;45.67
43838;BME280;65998;46.256;7.534;2023-04-23T06:00:23;86463.66;;;15.38;45.62
43838;BME280;65998;46.256;7.534;2023-04-23T06:02:49;86467.03;;;15.41;45.60
43838;BME280;65998;46.256;7.534;2023-04-23T06:05:15;86469.13;;;15.40;45.76
43838;BME280;65998;46.256;7.534;2023-04-23T06:07:41;86478.88;;;15.39;45.63
43838;BME280;65998;46.256;7.534;2023-04-23T06:10:07;86477.44;;;15.40;45.68
43838;BME280;65998;46.256;7.534;2023-04-23T06:12:33;86483.78;;;15.37;45.62
43838;BME280;65998;46.256;7.534;2023-04-23T06:14:59;86481.69;;;15.37;45.65
43838;BME280;65998;46.256;7.534;2023-04-23T06:17:24;86485.88;;;15.36;45.70
43838;BME280;65998;46.256;7.534;2023-04-23T06:19:50;86483.06;;;15.38;45.61
43838;BME280;65998;46.256;7.534;2023-04-23T06:22:16;86487.25;;;15.37;45.78
43838;BME280;65998;46.256;7.534;2023-04-23T06:24:42;86483.13;;;15.36;45.78
43838;BME280;65998;46.256;7.534;2023-04-23T06:27:08;86487.97;;;15.36;45.56
43838;BME280;65998;46.256;7.534;2023-04-23T06:29:33;86479.69;;;15.36;46.00
43838;BME280;65998;46.256;7.534;2023-04-23T06:32:02;86494.06;;;15.40;45.68
43838;BME280;65998;46.256;7.534;2023-04-23T06:34:28;86486.03;;;15.32;45.68
43838;BME280;65998;46.256;7.534;2023-04-23T06:36:54;86482.59;;;15.31;45.61
43838;BME280;65998;46.256;7.534;2023-04-23T06:39:20;86482.53;;;15.33;45.61
43838;BME280;65998;46.256;7.534;2023-04-23T06:41:45;86479.75;;;15.33;45.70
43838;BME280;65998;46.256;7.534;2023-04-23T06:44:11;86473.63;;;15.31;45.45
43838;BME280;65998;46.256;7.534;2023-04-23T06:46:37;86463.22;;;15.31;45.76
43838;BME280;65998;46.256;7.534;2023-04-23T06:49:03;86459.84;;;15.29;45.63
43838;BME280;65998;46.256;7.534;2023-04-23T06:51:29;86463.22;;;15.31;45.84
43838;BME280;65998;46.256;7.534;2023-04-23T06:53:55;86458.44;;;15.30;45.79
43838;BME280;65998;46.256;7.534;2023-04-23T06:56:20;86461.19;;;15.30;45.74
43838;BME280;65998;46.256;7.534;2023-04-23T06:58:46;86457.75;;;15.29;45.55
43838;BME280;65998;46.256;7.534;2023-04-23T07:01:12;86459.84;;;15.29;45.53
43838;BME280;65998;46.256;7.534;2023-04-23T07:03:39;86453.63;;;15.28;45.76
43838;BME280;65998;46.256;7.534;2023-04-23T07:06:04;86455.72;;;15.28;45.67
43838;BME280;65998;46.256;7.534;2023-04-23T07:08:30;86452.34;;;15.25;45.79
43838;BME280;65998;46.256;7.534;2023-04-23T07:10:56;86444.72;;;15.26;45.70
43838;BME280;65998;46.256;7.534;2023-04-23T07:13:23;86447.41;;;15.28;45.80
43838;BME280;65998;46.256;7.534;2023-04-23T07:15:48;86440.63;;;15.25;45.74
43838;BME280;65998;46.256;7.534;2023-04-23T07:18:14;86449.59;;;15.25;45.64
43838;BME280;65998;46.256;7.534;2023-04-23T07:20:40;86448.91;;;15.25;45.88
43838;BME280;65998;46.256;7.534;2023-04-23T07:23:06;86442.03;;;15.24;45.85
43838;BME280;65998;46.256;7.534;2023-04-23T07:25:32;86448.91;;;15.25;45.67
43838;BME280;65998;46.256;7.534;2023-04-23T07:27:58;86449.59;;;15.25;45.68
43838;BME280;65998;46.256;7.534;2023-04-23T07:30:25;86442.63;;;15.26;45.72
43838;BME280;65998;46.256;7.534;2023-04-23T07:32:51;86441.34;;;15.23;45.83
43838;BME280;65998;46.256;7.534;2023-04-23T07:35:17;86442.72;;;15.24;45.81
43838;BME280;65998;46.256;7.534;2023-04-23T07:37:43;86440.69;;;15.23;45.74
43838;BME280;65998;46.256;7.534;2023-04-23T07:40:09;86445.47;;;15.24;45.70
43838;BME280;65998;46.256;7.534;2023-04-23T07:42:35;86437.91;;;15.23;45.78
43838;BME280;65998;46.256;7.534;2023-04-23T07:45:00;86444.13;;;15.23;45.77
43838;BME280;65998;46.256;7.534;2023-04-23T07:47:26;86444.13;;;15.23;45.72
43838;BME280;65998;46.256;7.534;2023-04-23T07:49:52;86441.34;;;15.23;45.83
43838;BME280;65998;46.256;7.534;2023-04-23T07:52:18;86441.34;;;15.23;45.71
43838;BME280;65998;46.256;7.534;2023-04-23T07:54:44;86429.69;;;15.21;45.91
43838;BME280;65998;46.256;7.534;2023-04-23T07:57:10;86430.28;;;15.23;45.87
43838;BME280;65998;46.256;7.534;2023-04-23T07:59:36;86428.94;;;15.22;45.74
43838;BME280;65998;46.256;7.534;2023-04-23T08:02:01;86437.25;;;15.22;45.83
43838;BME280;65998;46.256;7.534;2023-04-23T08:04:27;86425.50;;;15.22;45.71
43838;BME280;65998;46.256;7.534;2023-04-23T08:06:53;86429.63;;;15.23;45.83
43838;BME280;65998;46.256;7.534;2023-04-23T08:09:19;86422.72;;;15.22;45.89
43838;BME280;65998;46.256;7.534;2023-04-23T08:11:44;86422.72;;;15.22;45.81
43838;BME280;65998;46.256;7.534;2023-04-23T08:14:10;86424.81;;;15.21;45.81
43838;BME280;65998;46.256;7.534;2023-04-23T08:16:36;86427.53;;;15.23;45.85
43838;BME280;65998;46.256;7.534;2023-04-23T08:19:02;86427.59;;;15.21;45.74
43838;BME280;65998;46.256;7.534;2023-04-23T08:21:28;86427.53;;;15.23;45.88
43838;BME280;65998;46.256;7.534;2023-04-23T08:23:53;86426.16;;;15.22;45.86
43838;BME280;65998;46.256;7.534;2023-04-23T08:26:19;86433.81;;;15.22;45.94
43838;BME280;65998;46.256;7.534;2023-04-23T08:28:45;86435.16;;;15.23;45.72
43838;BME280;65998;46.256;7.534;2023-04-23T08:31:11;86437.91;;;15.23;45.87
43838;BME280;65998;46.256;7.534;2023-04-23T08:33:37;86430.34;;;15.21;45.75
43838;BME280;65998;46.256;7.534;2023-04-23T08:36:03;86440.00;;;15.22;45.73
43838;BME280;65998;46.256;7.534;2023-04-23T08:38:28;86435.91;;;15.21;45.83
43838;BME280;65998;46.256;7.534;2023-04-23T08:40:57;86435.75;;;15.25;45.71
43838;BME280;65998;46.256;7.534;2023-04-23T08:43:52;86437.69;;;15.29;45.60
43838;BME280;65998;46.256;7.534;2023-04-23T08:46:24;86432.31;;;15.25;45.71
43838;BME280;65998;46.256;7.534;2023-04-23T08:48:52;86438.66;;;15.21;45.91
43838;BME280;65998;46.256;7.534;2023-04-23T08:51:20;86433.66;;;15.26;45.90
43838;BME280;65998;46.256;7.534;2023-04-23T08:53:50;86435.06;;;15.25;45.80
43838;BME280;65998;46.256;7.534;2023-04-23T08:56:21;86439.25;;;15.24;45.68
43838;BME280;65998;46.256;7.534;2023-04-23T08:58:49;86437.09;;;15.26;45.84
43838;BME280;65998;46.256;7.534;2023-04-23T09:01:16;86434.34;;;15.26;45.88
43838;BME280;65998;46.256;7.534;2023-04-23T09:03:42;86423.34;;;15.24;45.84
43838;BME280;65998;46.256;7.534;2023-04-23T09:06:09;86420.63;;;15.22;45.88
43838;BME280;65998;46.256;7.534;2023-04-23T09:08:34;86425.50;;;15.22;45.79
43838;BME280;65998;46.256;7.534;2023-04-23T09:11:00;86420.63;;;15.22;45.82
43838;BME280;65998;46.256;7.534;2023-04-23T09:13:28;86417.88;;;15.22;45.83
43838;BME280;65998;46.256;7.534;2023-04-23T09:15:54;86414.50;;;15.20;45.92
43838;BME280;65998;46.256;7.534;2023-04-23T09:18:20;86408.91;;;15.22;45.66
43838;BME280;65998;46.256;7.534;2023-04-23T09:20:46;86406.13;;;15.22;46.23
43838;BME280;65998;46.256;7.534;2023-04-23T09:23:20;86400.44;;;15.26;45.94
43838;BME280;65998;46.256;7.534;2023-04-23T09:25:46;86396.47;;;15.21;45.91
43838;BME280;65998;46.256;7.534;2023-04-23T09:28:12;86398.56;;;15.20;45.82
43838;BME280;65998;46.256;7.534;2023-04-23T09:30:47;86389.38;;;15.26;45.71
43838;BME280;65998;46.256;7.534;2023-04-23T09:33:15;86391.47;;;15.25;45.85
43838;BME280;65998;46.256;7.534;2023-04-23T09:35:41;86385.41;;;15.21;45.95
43838;BME280;65998;46.256;7.534;2023-04-23T09:38:07;86394.38;;;15.21;45.92
43838;BME280;65998;46.256;7.534;2023-04-23T09:40:33;86390.94;;;15.21;45.79
43838;BME280;65998;46.256;7.534;2023-04-23T09:43:02;86383.84;;;15.26;45.87
43838;BME280;65998;46.256;7.534;2023-04-23T09:45:29;86391.63;;;15.21;45.84
43838;BME280;65998;46.256;7.534;2023-04-23T09:47:56;86381.13;;;15.24;45.83
43838;BME280;65998;46.256;7.534;2023-04-23T09:50:36;86381.66;;;15.28;45.70
43838;BME280;65998;46.256;7.534;2023-04-23T09:53:06;86377.63;;;15.25;45.80
43838;BME280;65998;46.256;7.534;2023-04-23T09:55:34;86372.00;;;15.27;45.79
43838;BME280;65998;46.256;7.534;2023-04-23T09:58:04;86372.75;;;15.26;45.98
43838;BME280;65998;46.256;7.534;2023-04-23T10:00:35;86374.72;;;15.29;45.89
43838;BME280;65998;46.256;7.534;2023-04-23T10:03:01;86376.28;;;15.24;45.94
43838;BME280;65998;46.256;7.534;2023-04-23T10:05:28;86366.47;;;15.27;45.94
43838;BME280;65998;46.256;7.534;2023-04-23T10:07:57;86359.44;;;15.30;45.88
43838;BME280;65998;46.256;7.534;2023-04-23T10:10:23;86354.00;;;15.28;45.95
43838;BME280;65998;46.256;7.534;2023-04-23T10:12:51;86358.78;;;15.30;45.88
43838;BME280;65998;46.256;7.534;2023-04-23T10:15:18;86356.84;;;15.26;45.83
43838;BME280;65998;46.256;7.534;2023-04-23T10:17:45;86357.34;;;15.31;45.99
43838;BME280;65998;46.256;7.534;2023-04-23T10:20:12;86354.00;;;15.28;45.92
43838;BME280;65998;46.256;7.534;2023-04-23T10:22:38;86350.53;;;15.28;46.00
43838;BME280;65998;46.256;7.534;2023-04-23T10:25:09;86357.28;;;15.33;46.01
43838;BME280;65998;46.256;7.534;2023-04-23T10:27:41;86354.44;;;15.35;45.97
43838;BME280;65998;46.256;7.534;2023-04-23T10:30:09;86359.97;;;15.35;46.10
43838;BME280;65998;46.256;7.534;2023-04-23T10:32:36;86357.28;;;15.33;46.07
43838;BME280;65998;46.256;7.534;2023-04-23T10:35:04;86355.84;;;15.34;46.16
43838;BME280;65998;46.256;7.534;2023-04-23T10:37:30;86358.56;;;15.36;46.14
43838;BME280;65998;46.256;7.534;2023-04-23T10:40:07;86359.16;;;15.39;46.07
43838;BME280;65998;46.256;7.534;2023-04-23T10:42:34;86354.50;;;15.33;46.17
43838;BME280;65998;46.256;7.534;2023-04-23T10:45:00;86352.50;;;15.31;46.19
43838;BME280;65998;46.256;7.534;2023-04-23T10:47:26;86352.50;;;15.31;46.23
43838;BME280;65998;46.256;7.534;2023-04-23T10:49:52;86355.09;;;15.36;46.18
43838;BME280;65998;46.256;7.534;2023-04-23T10:52:18;86354.50;;;15.33;46.11
43838;BME280;65998;46.256;7.534;2023-04-23T10:54:56;86356.22;;;15.43;46.16
43838;BME280;65998;46.256;7.534;2023-04-23T10:57:22;86355.84;;;15.34;46.19
43838;BME280;65998;46.256;7.534;2023-04-23T12:30:47;86233.91;;;14.65;47.88
43838;BME280;65998;46.256;7.534;2023-04-23T12:33:13;86233.53;;;14.75;48.07
43838;BME280;65998;46.256;7.534;2023-04-23T12:35:44;86228.22;;;14.88;48.10
43838;BME280;65998;46.256;7.534;2023-04-23T12:38:23;86224.47;;;14.95;48.08
43838;BME280;65998;46.256;7.534;2023-04-23T12:40:50;86230.59;;;14.98;47.79
43838;BME280;65998;46.256;7.534;2023-04-23T12:43:17;86226.94;;;15.04;47.82
43838;BME280;65998;46.256;7.534;2023-04-23T12:45:42;86213.53;;;15.10;47.83
43838;BME280;65998;46.256;7.534;2023-04-23T12:48:08;86223.69;;;15.16;47.79
43838;BME280;65998;46.256;7.534;2023-04-23T12:50:34;86215.25;;;15.20;47.64
43838;BME280;65998;46.256;7.534;2023-04-23T12:53:00;86217.09;;;15.25;47.47
43838;BME280;65998;46.256;7.534;2023-04-23T12:55:26;86210.72;;;15.29;47.33
43838;BME280;65998;46.256;7.534;2023-04-23T12:57:52;86209.16;;;15.34;47.19
43838;BME280;65998;46.256;7.534;2023-04-23T13:00:17;86213.78;;;15.40;47.01
43838;BME280;65998;46.256;7.534;2023-04-23T13:02:43;86217.81;;;15.43;47.05
43838;BME280;65998;46.256;7.534;2023-04-23T13:05:09;86212.84;;;15.45;47.09
43838;BME280;65998;46.256;7.534;2023-04-23T13:07:35;86212.09;;;15.47;47.01
43838;BME280;65998;46.256;7.534;2023-04-23T13:10:01;86205.81;;;15.48;47.01
43838;BME280;65998;46.256;7.534;2023-04-23T13:12:27;86206.41;;;15.51;46.77
43838;BME280;65998;46.256;7.534;2023-04-23T13:14:52;86206.31;;;15.53;46.91
43838;BME280;65998;46.256;7.534;2023-04-23T13:17:18;86208.34;;;15.54;46.76
43838;BME280;65998;46.256;7.534;2023-04-23T13:19:44;86204.81;;;15.56;46.66
43838;BME280;65998;46.256;7.534;2023-04-23T13:22:10;86204.75;;;15.58;46.79
43838;BME280;65998;46.256;7.534;2023-04-23T13:24:36;86203.34;;;15.59;46.81
43838;BME280;65998;46.256;7.534;2023-04-23T13:27:02;86197.75;;;15.61;46.64
43838;BME280;65998;46.256;7.534;2023-04-23T13:29:27;86197.66;;;15.63;46.62
43838;BME280;65998;46.256;7.534;2023-04-23T13:31:55;86196.16;;;15.66;46.53
43838;BME280;65998;46.256;7.534;2023-04-23T13:34:21;86194.72;;;15.67;46.59
43838;BME280;65998;46.256;7.534;2023-04-23T13:36:47;86197.50;;;15.67;46.62
43838;BME280;65998;46.256;7.534;2023-04-23T13:39:13;86197.50;;;15.67;46.71
43838;BME280;65998;46.256;7.534;2023-04-23T13:41:40;86189.78;;;15.70;46.50
43838;BME280;65998;46.256;7.534;2023-04-23T13:44:06;86194.63;;;15.69;46.33
43838;BME280;65998;46.256;7.534;2023-04-23T13:46:32;86193.22;;;15.70;46.53
43838;BME280;65998;46.256;7.534;2023-04-23T13:48:58;86193.22;;;15.70;46.48
43838;BME280;65998;46.256;7.534;2023-04-23T13:51:24;86194.56;;;15.71;46.38
43838;BME280;65998;46.256;7.534;2023-04-23T13:53:49;86190.44;;;15.70;46.42
43838;BME280;65998;46.256;7.534;2023-04-23T13:56:15;86189.69;;;15.72;46.45
43838;BME280;65998;46.256;7.534;2023-04-23T13:58:41;86188.94;;;15.73;46.46
43838;BME280;65998;46.256;7.534;2023-04-23T14:01:07;86193.03;;;15.74;46.49
43838;BME280;65998;46.256;7.534;2023-04-23T14:03:33;86185.41;;;15.75;46.27
43838;BME280;65998;46.256;7.534;2023-04-23T14:05:59;86186.09;;;15.75;46.42
43838;BME280;65998;46.256;7.534;2023-04-23T14:08:25;86188.19;;;15.75;46.34
43838;BME280;65998;46.256;7.534;2023-04-23T14:10:51;86180.53;;;15.75;46.42
43838;BME280;65998;46.256;7.534;2023-04-23T14:13:17;86185.31;;;15.77;46.25
43838;BME280;65998;46.256;7.534;2023-04-23T14:15:43;86179.78;;;15.77;46.34
43838;BME280;65998;46.256;7.534;2023-04-23T14:18:08;86177.00;;;15.77;46.26
43838;BME280;65998;46.256;7.534;2023-04-23T14:20:34;86177.69;;;15.77;46.26
43838;BME280;65998;46.256;7.534;2023-04-23T14:23:03;86167.09;;;15.82;46.33
43838;BME280;65998;46.256;7.534;2023-04-23T14:25:40;86173.25;;;15.84;46.25